createdAt,value
2018-11-26T00:00:36.210Z,44.38
2018-11-26T00:03:08.666Z,44.80
2018-11-26T00:05:37.952Z,44.68
2018-11-26T00:08:07.584Z,44.45
2018-11-26T00:10:47.385Z,45.51
2018-11-26T00:13:15.814Z,45.14
2018-11-26T00:15:44.098Z,44.60
2018-11-26T00:18:12.477Z,44.69
2018-11-26T00:20:40.755Z,45.82
2018-11-26T00:23:09.566Z,45.27
2018-11-26T00:25:38.021Z,45.91
2018-11-26T00:28:06.885Z,45.42
2018-11-26T00:30:35.221Z,45.73
2018-11-26T00:33:03.592Z,45.73
2018-11-26T00:35:31.889Z,45.38
2018-11-26T00:38:00.215Z,45.64
2018-11-26T00:40:28.645Z,45.33
2018-11-26T00:42:57.119Z,45.12
2018-11-26T00:45:25.582Z,44.99
2018-11-26T00:47:54.027Z,45.30
2018-11-26T00:50:22.351Z,45.42
2018-11-26T00:52:50.772Z,45.76
2018-11-26T00:55:19.049Z,45.66
2018-11-26T00:57:47.470Z,45.87
2018-11-26T01:00:16.028Z,45.52
2018-11-26T01:02:44.450Z,45.98
2018-11-26T01:05:36.181Z,46.20
2018-11-26T01:08:04.435Z,46.00
2018-11-26T01:10:32.848Z,45.90
2018-11-26T01:13:01.427Z,45.97
2018-11-26T01:15:29.852Z,45.93
2018-11-26T01:17:58.148Z,46.29
2018-11-26T01:20:26.483Z,46.55
2018-11-26T01:22:55.055Z,46.35
2018-11-26T01:25:23.327Z,46.38
2018-11-26T01:27:51.763Z,46.16
2018-11-26T01:30:20.185Z,46.96
2018-11-26T01:32:48.881Z,46.46
2018-11-26T01:35:17.178Z,46.34
2018-11-26T01:37:45.603Z,46.03
2018-11-26T01:40:34.405Z,47.01
2018-11-26T01:43:02.789Z,47.34
2018-11-26T01:45:31.296Z,47.07
2018-11-26T01:47:59.603Z,46.50
2018-11-26T01:50:27.975Z,46.58
2018-11-26T01:52:56.285Z,46.30
2018-11-26T01:55:24.607Z,46.70
2018-11-26T01:57:52.903Z,47.13
2018-11-26T02:00:25.448Z,46.83
2018-11-26T02:02:54.393Z,47.23
2018-11-26T02:05:22.826Z,47.59
2018-11-26T02:07:51.411Z,46.98
2018-11-26T02:10:20.582Z,47.65
2018-11-26T02:12:48.934Z,47.17
2018-11-26T02:15:38.972Z,47.39
2018-11-26T02:18:08.212Z,47.44
2018-11-26T02:20:36.649Z,47.27
2018-11-26T02:23:05.098Z,47.32
2018-11-26T02:25:33.407Z,47.28
2018-11-26T02:28:01.732Z,47.17
2018-11-26T02:30:30.240Z,47.21
2018-11-26T02:32:58.587Z,47.61
2018-11-26T02:35:27.047Z,47.27
2018-11-26T02:37:55.439Z,48.33
2018-11-26T02:40:29.909Z,47.36
2018-11-26T02:42:58.291Z,47.24
2018-11-26T02:45:28.083Z,47.13
2018-11-26T02:47:56.619Z,46.79
2018-11-26T02:50:25.004Z,46.47
2018-11-26T02:52:53.384Z,47.23
2018-11-26T02:55:21.853Z,46.89
2018-11-26T02:57:50.440Z,47.00
2018-11-26T03:00:18.906Z,47.15
2018-11-26T03:02:47.210Z,47.35
2018-11-26T03:05:24.686Z,46.82
2018-11-26T03:07:53.246Z,47.01
2018-11-26T03:10:21.647Z,46.44
2018-11-26T03:12:49.959Z,46.37
2018-11-26T03:15:18.317Z,46.72
2018-11-26T03:17:46.723Z,46.98
2018-11-26T03:20:15.044Z,47.32
2018-11-26T03:22:43.577Z,47.56
2018-11-26T03:25:11.888Z,47.38
2018-11-26T03:27:40.186Z,48.05
2018-11-26T03:30:24.487Z,48.48
2018-11-26T03:32:53.035Z,47.71
2018-11-26T03:35:21.315Z,48.56
2018-11-26T03:37:49.655Z,49.32
2018-11-26T03:40:17.994Z,48.67
2018-11-26T03:42:46.272Z,48.87
2018-11-26T03:45:16.813Z,48.85
2018-11-26T03:47:45.225Z,48.62
2018-11-26T03:50:14.210Z,48.86
2018-11-26T03:52:43.446Z,48.42
2018-11-26T03:55:12.202Z,48.77
2018-11-26T03:57:40.612Z,48.53
2018-11-26T04:00:10.679Z,49.73
2018-11-26T04:02:39.110Z,49.31
2018-11-26T04:05:08.517Z,48.62
2018-11-26T04:07:36.921Z,48.78
2018-11-26T04:10:06.809Z,49.03
2018-11-26T04:12:35.109Z,48.74
2018-11-26T04:15:03.451Z,48.43
2018-11-26T04:17:31.909Z,48.80
2018-11-26T04:20:00.321Z,48.95
2018-11-26T04:22:28.796Z,48.03
2018-11-26T04:24:57.185Z,48.49
2018-11-26T04:27:25.806Z,48.34
2018-11-26T04:29:54.100Z,48.38
2018-11-26T04:32:22.421Z,47.94
2018-11-26T04:34:50.821Z,48.22
2018-11-26T04:37:19.438Z,48.55
2018-11-26T04:39:47.746Z,48.54
2018-11-26T04:42:16.000Z,48.59
2018-11-26T04:44:44.477Z,48.98
2018-11-26T04:47:12.787Z,48.35
2018-11-26T04:49:41.174Z,48.35
2018-11-26T04:52:09.452Z,48.55
2018-11-26T04:54:37.818Z,48.53
2018-11-26T04:57:06.334Z,48.75
2018-11-26T04:59:34.704Z,48.08
2018-11-26T05:02:03.081Z,49.06
2018-11-26T05:04:31.585Z,48.77
2018-11-26T05:07:00.094Z,48.91
2018-11-26T05:09:28.399Z,48.74
2018-11-26T05:11:56.711Z,48.85
2018-11-26T05:14:25.153Z,48.67
2018-11-26T05:16:53.542Z,48.10
2018-11-26T05:19:21.852Z,48.37
2018-11-26T05:21:50.183Z,48.17
2018-11-26T05:24:18.595Z,47.92
2018-11-26T05:26:46.983Z,48.43
2018-11-26T05:29:15.311Z,48.08
2018-11-26T05:31:43.751Z,48.73
2018-11-26T05:34:12.171Z,48.11
2018-11-26T05:36:40.499Z,48.08
2018-11-26T05:39:09.318Z,47.99
2018-11-26T05:41:37.730Z,47.62
2018-11-26T05:44:06.369Z,48.10
2018-11-26T05:46:34.665Z,48.58
2018-11-26T05:49:02.963Z,47.83
2018-11-26T05:51:31.391Z,48.21
2018-11-26T05:53:59.744Z,47.88
2018-11-26T05:56:28.216Z,47.53
2018-11-26T05:58:56.506Z,47.87
2018-11-26T06:01:24.985Z,47.89
2018-11-26T06:03:53.860Z,47.00
2018-11-26T06:06:22.211Z,47.23
2018-11-26T06:08:50.555Z,47.97
2018-11-26T06:11:18.876Z,47.85
2018-11-26T06:13:47.178Z,47.59
2018-11-26T06:16:17.327Z,47.66
2018-11-26T06:18:45.703Z,47.62
2018-11-26T06:21:14.050Z,47.88
2018-11-26T06:23:42.464Z,47.74
2018-11-26T06:26:10.758Z,48.15
2018-11-26T06:28:39.230Z,48.64
2018-11-26T06:31:07.583Z,48.05
2018-11-26T06:33:35.923Z,48.16
2018-11-26T06:36:05.182Z,49.39
2018-11-26T06:38:33.673Z,47.71
2018-11-26T06:41:02.032Z,48.01
2018-11-26T06:43:30.440Z,47.95
2018-11-26T06:45:58.709Z,48.46
2018-11-26T06:48:27.131Z,47.49
2018-11-26T06:50:55.541Z,47.22
2018-11-26T06:53:23.970Z,46.86
2018-11-26T06:55:52.260Z,47.26
2018-11-26T06:58:20.697Z,47.19
2018-11-26T07:00:49.507Z,46.93
2018-11-26T07:03:17.866Z,47.17
2018-11-26T07:05:46.152Z,47.00
2018-11-26T07:08:14.742Z,46.77
2018-11-26T07:10:43.090Z,47.52
2018-11-26T07:13:11.572Z,46.85
2018-11-26T07:15:40.223Z,46.89
2018-11-26T07:18:08.615Z,47.50
2018-11-26T07:20:36.993Z,47.28
2018-11-26T07:23:05.422Z,46.86
2018-11-26T07:25:33.771Z,47.18
2018-11-26T07:28:03.284Z,46.95
2018-11-26T07:30:31.760Z,46.70
2018-11-26T07:33:02.389Z,46.38
2018-11-26T07:35:31.595Z,46.62
2018-11-26T07:37:59.901Z,48.42
2018-11-26T07:40:28.211Z,47.33
2018-11-26T07:43:02.206Z,47.16
2018-11-26T07:45:30.807Z,45.75
2018-11-26T07:47:59.149Z,46.16
2018-11-26T07:50:27.408Z,45.65
2018-11-26T07:52:55.731Z,45.15
2018-11-26T07:55:24.114Z,45.43
2018-11-26T07:57:52.585Z,44.73
2018-11-26T08:00:21.852Z,44.96
2018-11-26T08:02:50.510Z,44.64
2018-11-26T08:05:19.798Z,45.71
2018-11-26T08:07:48.160Z,44.95
2018-11-26T08:10:18.864Z,44.83
2018-11-26T08:12:49.138Z,44.02
2018-11-26T08:15:20.496Z,45.01
2018-11-26T08:17:48.847Z,45.08
2018-11-26T08:20:17.341Z,44.71
2018-11-26T08:22:45.814Z,43.97
2018-11-26T08:25:16.701Z,45.37
2018-11-26T08:27:46.088Z,45.48
2018-11-26T08:30:18.361Z,44.49
2018-11-26T08:32:47.946Z,45.01
2018-11-26T08:35:17.170Z,44.38
2018-11-26T08:37:50.796Z,43.95
2018-11-26T08:40:23.218Z,44.69
2018-11-26T08:42:51.552Z,44.49
2018-11-26T08:45:25.198Z,44.88
2018-11-26T08:47:59.763Z,44.58
2018-11-26T08:50:28.031Z,44.88
2018-11-26T08:52:56.490Z,44.76
2018-11-26T08:55:24.868Z,44.38
2018-11-26T08:57:53.309Z,45.33
2018-11-26T09:00:21.611Z,45.64
2018-11-26T09:03:00.230Z,45.60
2018-11-26T09:05:34.076Z,45.47
2018-11-26T09:08:02.472Z,46.24
2018-11-26T09:10:30.747Z,45.44
2018-11-26T09:12:59.119Z,45.02
2018-11-26T09:15:27.519Z,44.42
2018-11-26T09:17:55.925Z,44.54
2018-11-26T09:20:24.222Z,44.28
2018-11-26T09:22:52.603Z,43.77
2018-11-26T09:25:20.906Z,43.22
2018-11-26T09:27:49.226Z,43.73
2018-11-26T09:30:17.590Z,43.07
2018-11-26T09:32:45.933Z,43.09
2018-11-26T09:35:15.709Z,42.72
2018-11-26T09:37:44.087Z,43.63
2018-11-26T09:40:16.605Z,43.15
2018-11-26T09:42:45.178Z,42.97
2018-11-26T09:45:16.689Z,43.17
2018-11-26T09:47:45.421Z,43.68
2018-11-26T09:50:16.055Z,43.31
2018-11-26T09:52:44.379Z,43.24
2018-11-26T09:55:14.576Z,43.28
2018-11-26T09:57:42.853Z,43.24
2018-11-26T10:00:13.565Z,42.71
2018-11-26T10:02:43.273Z,42.98
2018-11-26T10:05:13.135Z,43.65
2018-11-26T10:07:41.516Z,42.20
2018-11-26T10:10:11.247Z,42.05
2018-11-26T10:12:40.189Z,42.83
2018-11-26T10:15:17.980Z,42.27
2018-11-26T10:17:46.305Z,42.54
2018-11-26T10:20:14.683Z,43.55
2018-11-26T10:22:43.945Z,43.41
2018-11-26T10:25:14.240Z,42.96
2018-11-26T10:27:42.582Z,42.36
2018-11-26T10:30:13.067Z,43.31
2018-11-26T10:32:41.780Z,43.16
2018-11-26T10:35:13.224Z,42.80
2018-11-26T10:37:41.895Z,42.41
2018-11-26T10:40:11.439Z,42.22
2018-11-26T10:42:39.849Z,42.67
2018-11-26T10:45:10.095Z,41.82
2018-11-26T10:47:38.426Z,41.88
2018-11-26T10:50:09.648Z,42.16
2018-11-26T10:52:37.987Z,42.30
2018-11-26T10:55:08.992Z,42.58
2018-11-26T10:57:37.291Z,42.54
2018-11-26T11:00:07.311Z,42.82
2018-11-26T11:02:40.940Z,42.31
2018-11-26T11:05:09.339Z,42.73
2018-11-26T11:07:37.726Z,43.20
2018-11-26T11:10:09.886Z,43.29
2018-11-26T11:12:38.327Z,42.65
2018-11-26T11:15:08.718Z,42.43
2018-11-26T11:17:37.255Z,42.94
2018-11-26T11:20:11.476Z,42.11
2018-11-26T11:22:39.798Z,42.37
2018-11-26T11:25:08.962Z,43.29
2018-11-26T11:27:37.261Z,42.88
2018-11-26T11:30:18.524Z,43.37
2018-11-26T11:32:46.944Z,42.95
2018-11-26T11:35:15.837Z,42.38
2018-11-26T11:37:45.338Z,42.83
2018-11-26T11:40:21.852Z,43.55
2018-11-26T11:42:50.282Z,43.66
2018-11-26T11:45:19.091Z,44.03
2018-11-26T11:47:47.565Z,43.92
2018-11-26T11:50:17.761Z,44.32
2018-11-26T11:52:46.527Z,44.52
2018-11-26T11:55:18.931Z,44.46
2018-11-26T11:57:47.542Z,44.75
2018-11-26T12:00:25.296Z,44.48
2018-11-26T12:02:53.693Z,45.35
2018-11-26T12:05:22.098Z,44.54
2018-11-26T12:07:50.462Z,44.29
2018-11-26T12:10:18.987Z,45.38
2018-11-26T12:12:47.314Z,44.27
2018-11-26T12:15:16.745Z,45.49
2018-11-26T12:17:45.929Z,44.84
2018-11-26T12:20:14.905Z,45.08
2018-11-26T12:22:43.594Z,44.28
2018-11-26T12:25:13.980Z,45.29
2018-11-26T12:27:42.500Z,44.85
2018-11-26T12:30:15.498Z,44.13
2018-11-26T12:32:44.019Z,44.43
2018-11-26T12:35:12.795Z,45.12
2018-11-26T12:37:41.193Z,44.29
2018-11-26T12:40:10.959Z,44.96
2018-11-26T12:42:39.462Z,44.55
2018-11-26T12:45:11.710Z,44.73
2018-11-26T12:47:39.989Z,44.57
2018-11-26T12:50:08.360Z,45.44
2018-11-26T12:52:37.130Z,45.50
2018-11-26T12:55:06.163Z,45.31
2018-11-26T12:57:34.791Z,45.98
2018-11-26T13:00:06.227Z,45.74
2018-11-26T13:02:34.551Z,45.19
2018-11-26T13:05:02.931Z,45.67
2018-11-26T13:07:31.378Z,45.58
2018-11-26T13:09:59.865Z,45.96
2018-11-26T13:12:28.294Z,45.74
2018-11-26T13:14:56.988Z,47.47
2018-11-26T13:17:25.284Z,46.65
2018-11-26T13:19:54.656Z,46.74
2018-11-26T13:22:23.001Z,46.58
2018-11-26T13:24:51.347Z,46.01
2018-11-26T13:27:19.836Z,46.51
2018-11-26T13:29:48.155Z,46.54
2018-11-26T13:32:17.095Z,46.93
2018-11-26T13:34:45.545Z,47.53
2018-11-26T13:37:14.082Z,47.65
2018-11-26T13:39:42.621Z,47.01
2018-11-26T13:42:11.062Z,47.21
2018-11-26T13:44:39.763Z,47.85
2018-11-26T13:47:08.366Z,47.81
2018-11-26T13:49:36.832Z,47.33
2018-11-26T13:52:05.232Z,46.83
2018-11-26T13:54:33.487Z,47.60
2018-11-26T13:57:01.830Z,48.05
2018-11-26T13:59:30.159Z,47.94
2018-11-26T14:01:58.600Z,48.72
2018-11-26T14:04:26.942Z,47.89
2018-11-26T14:06:55.272Z,47.65
2018-11-26T14:09:23.607Z,49.50
2018-11-26T14:11:52.072Z,48.75
2018-11-26T14:14:20.331Z,47.81
2018-11-26T14:16:48.630Z,48.32
2018-11-26T14:19:16.970Z,47.95
2018-11-26T14:21:46.328Z,48.99
2018-11-26T14:24:15.034Z,48.70
2018-11-26T14:26:43.126Z,48.07
2018-11-26T14:29:11.525Z,48.60
2018-11-26T14:31:40.099Z,48.46
2018-11-26T14:34:08.544Z,48.34
2018-11-26T14:36:36.951Z,48.70
2018-11-26T14:39:07.343Z,48.38
2018-11-26T14:41:35.852Z,48.74
2018-11-26T14:44:04.491Z,48.90
2018-11-26T14:46:32.633Z,48.13
2018-11-26T14:49:00.991Z,48.15
2018-11-26T14:51:29.543Z,48.15
2018-11-26T14:53:57.846Z,48.37
2018-11-26T14:56:26.457Z,48.22
2018-11-26T14:58:54.833Z,48.53
2018-11-26T15:01:23.216Z,48.64
2018-11-26T15:03:51.529Z,48.78
2018-11-26T15:06:20.019Z,48.99
2018-11-26T15:08:48.413Z,49.05
2018-11-26T15:11:16.923Z,48.80
2018-11-26T15:13:45.243Z,48.90
2018-11-26T15:16:13.583Z,48.54
2018-11-26T15:18:42.190Z,48.42
2018-11-26T15:21:10.499Z,48.90
2018-11-26T15:23:38.869Z,49.74
2018-11-26T15:26:08.662Z,49.65
2018-11-26T15:28:37.004Z,49.88
2018-11-26T15:31:05.358Z,50.41
2018-11-26T15:33:33.910Z,49.38
2018-11-26T15:36:02.243Z,49.33
2018-11-26T15:38:30.630Z,49.37
2018-11-26T15:40:58.906Z,49.56
2018-11-26T15:43:27.396Z,49.61
2018-11-26T15:45:55.772Z,49.88
2018-11-26T15:48:24.214Z,50.41
2018-11-26T15:50:52.700Z,50.36
2018-11-26T15:53:21.000Z,49.83
2018-11-26T15:55:49.439Z,49.36
2018-11-26T15:58:23.492Z,49.70
2018-11-26T16:00:46.544Z,49.96
2018-11-26T16:03:15.018Z,50.53
2018-11-26T16:05:43.498Z,50.13
2018-11-26T16:08:14.170Z,51.00
2018-11-26T16:10:42.613Z,50.26
2018-11-26T16:13:12.989Z,49.67
2018-11-26T16:15:43.776Z,49.31
2018-11-26T16:18:14.090Z,49.94
2018-11-26T16:20:42.611Z,49.38
2018-11-26T16:23:11.536Z,49.75
2018-11-26T16:25:41.590Z,49.78
2018-11-26T16:28:11.281Z,49.99
2018-11-26T16:30:39.862Z,49.43
2018-11-26T16:33:09.159Z,49.32
2018-11-26T16:35:37.553Z,49.58
2018-11-26T16:38:06.576Z,49.23
2018-11-26T16:40:34.970Z,49.35
2018-11-26T16:43:03.312Z,49.62
2018-11-26T16:45:32.173Z,49.85
2018-11-26T16:48:00.618Z,48.85
2018-11-26T16:50:30.518Z,49.24
2018-11-26T16:52:58.968Z,49.06
2018-11-26T16:55:27.320Z,49.15
2018-11-26T16:57:55.724Z,49.51
2018-11-26T17:00:26.117Z,49.07
2018-11-26T17:02:56.821Z,49.17
2018-11-26T17:05:26.654Z,48.77
2018-11-26T17:07:54.975Z,49.20
2018-11-26T17:10:23.294Z,49.07
2018-11-26T17:12:51.835Z,48.58
2018-11-26T17:15:20.149Z,49.03
2018-11-26T17:17:48.626Z,48.57
2018-11-26T17:20:17.590Z,48.98
2018-11-26T17:22:45.964Z,49.10
2018-11-26T17:25:16.457Z,48.34
2018-11-26T17:27:45.431Z,48.50
2018-11-26T17:30:19.020Z,48.55
2018-11-26T17:32:48.697Z,49.05
2018-11-26T17:35:18.106Z,48.35
2018-11-26T17:37:46.404Z,49.18
2018-11-26T17:40:16.806Z,48.52
2018-11-26T17:42:45.145Z,48.81
2018-11-26T17:45:14.351Z,49.05
2018-11-26T17:47:45.202Z,49.00
2018-11-26T17:50:15.421Z,48.73
2018-11-26T17:52:44.047Z,49.03
2018-11-26T17:55:12.578Z,48.43
2018-11-26T17:57:40.995Z,48.50
2018-11-26T18:00:18.198Z,48.96
2018-11-26T18:02:46.759Z,49.00
2018-11-26T18:05:17.369Z,49.39
2018-11-26T18:07:48.211Z,49.17
2018-11-26T18:10:16.554Z,49.35
2018-11-26T18:12:44.913Z,49.41
2018-11-26T18:15:14.095Z,49.51
2018-11-26T18:17:43.302Z,49.41
2018-11-26T18:20:19.549Z,48.95
2018-11-26T18:22:49.385Z,49.23
2018-11-26T18:25:19.042Z,48.67
2018-11-26T18:27:54.432Z,48.96
2018-11-26T18:30:25.836Z,48.89
2018-11-26T18:32:54.457Z,49.20
2018-11-26T18:35:23.843Z,49.40
2018-11-26T18:37:52.226Z,49.36
2018-11-26T18:40:20.696Z,49.08
2018-11-26T18:42:49.301Z,48.89
2018-11-26T18:45:18.518Z,49.18
2018-11-26T18:47:47.630Z,49.26
2018-11-26T18:50:19.279Z,48.90
2018-11-26T18:52:48.657Z,49.39
2018-11-26T18:55:17.328Z,49.05
2018-11-26T18:57:45.839Z,48.58
2018-11-26T19:00:21.554Z,48.87
2018-11-26T19:02:50.531Z,49.09
2018-11-26T19:05:19.784Z,49.20
2018-11-26T19:07:48.137Z,49.04
2018-11-26T19:10:20.567Z,48.73
2018-11-26T19:12:52.666Z,49.08
2018-11-26T19:15:23.325Z,49.01
2018-11-26T19:17:52.902Z,49.30
2018-11-26T19:20:21.299Z,49.14
2018-11-26T19:22:49.680Z,49.04
2018-11-26T19:25:19.035Z,49.24
2018-11-26T19:27:48.785Z,48.67
2018-11-26T19:30:17.210Z,48.94
2018-11-26T19:32:46.406Z,48.80
2018-11-26T19:35:15.788Z,48.89
2018-11-26T19:37:44.524Z,48.83
2018-11-26T19:40:15.186Z,49.60
2018-11-26T19:42:45.304Z,49.31
2018-11-26T19:45:17.972Z,49.16
2018-11-26T19:47:46.526Z,49.24
2018-11-26T19:50:16.331Z,48.95
2018-11-26T19:52:45.326Z,48.88
2018-11-26T19:55:18.083Z,48.33
2018-11-26T19:57:46.867Z,48.73
2018-11-26T20:00:18.287Z,49.32
2018-11-26T20:02:48.601Z,48.73
2018-11-26T20:05:26.289Z,48.82
2018-11-26T20:07:54.692Z,48.92
2018-11-26T20:10:22.990Z,48.90
2018-11-26T20:12:51.485Z,48.09
2018-11-26T20:15:19.941Z,48.78
2018-11-26T20:17:48.351Z,48.62
2018-11-26T20:20:16.884Z,47.83
2018-11-26T20:22:45.206Z,48.49
2018-11-26T20:25:14.459Z,48.90
2018-11-26T20:27:43.606Z,48.83
2018-11-26T20:30:13.269Z,48.73
2018-11-26T20:32:42.988Z,48.87
2018-11-26T20:35:12.268Z,48.65
2018-11-26T20:37:40.663Z,48.65
2018-11-26T20:40:11.723Z,49.31
2018-11-26T20:42:41.901Z,49.44
2018-11-26T20:45:12.110Z,49.33
2018-11-26T20:47:40.458Z,49.82
2018-11-26T20:50:14.692Z,49.63
2018-11-26T20:52:43.104Z,49.71
2018-11-26T20:55:13.926Z,49.60
2018-11-26T20:57:42.314Z,49.49
2018-11-26T21:00:14.119Z,48.90
2018-11-26T21:02:42.703Z,48.69
2018-11-26T21:05:11.175Z,48.96
2018-11-26T21:07:39.603Z,48.79
2018-11-26T21:10:11.134Z,49.10
2018-11-26T21:12:39.489Z,49.64
2018-11-26T21:15:12.290Z,49.20
2018-11-26T21:17:40.736Z,49.25
2018-11-26T21:20:42.941Z,49.17
2018-11-26T21:23:15.284Z,49.38
2018-11-26T21:25:43.668Z,49.24
2018-11-26T21:28:12.674Z,48.98
2018-11-26T21:30:41.140Z,49.43
2018-11-26T21:33:09.620Z,49.35
2018-11-26T21:35:37.962Z,49.36
2018-11-26T21:38:07.798Z,49.01
2018-11-26T21:40:36.077Z,48.98
2018-11-26T21:43:05.078Z,49.28
2018-11-26T21:45:37.782Z,49.46
2018-11-26T21:48:06.323Z,48.73
2018-11-26T21:50:34.991Z,49.09
2018-11-26T21:53:03.480Z,49.28
2018-11-26T21:55:31.951Z,49.22
2018-11-26T21:58:00.420Z,50.60
2018-11-26T22:00:30.062Z,49.80
2018-11-26T22:03:02.878Z,49.41
2018-11-26T22:05:31.568Z,49.98
2018-11-26T22:08:00.149Z,50.72
2018-11-26T22:10:28.643Z,50.27
2018-11-26T22:13:01.238Z,50.00
2018-11-26T22:15:43.898Z,51.06
2018-11-26T22:18:17.927Z,51.56
2018-11-26T22:21:17.974Z,51.36
2018-11-26T22:23:56.509Z,50.24
